createdAt,value
2018-03-31T00:00:14.843Z,8.36
2018-03-31T00:00:55.222Z,8.37
2018-03-31T00:01:35.623Z,8.32
2018-03-31T00:02:16.041Z,8.32
2018-03-31T00:02:56.445Z,8.32
2018-03-31T00:03:36.875Z,8.29
2018-03-31T00:04:17.276Z,8.18
2018-03-31T00:04:57.601Z,8.14
2018-03-31T00:05:38.060Z,8.25
2018-03-31T00:06:18.451Z,8.21
2018-03-31T00:06:58.869Z,8.22
2018-03-31T00:07:39.270Z,8.21
2018-03-31T00:08:19.748Z,8.14
2018-03-31T00:09:00.053Z,8.21
2018-03-31T00:09:40.470Z,8.2
2018-03-31T00:10:21.015Z,8.2
2018-03-31T00:11:01.330Z,8.14
2018-03-31T00:11:44.258Z,8.2
2018-03-31T00:12:24.721Z,8.18
2018-03-31T00:13:05.110Z,8.21
2018-03-31T00:13:45.428Z,8.2
2018-03-31T00:14:25.874Z,8.24
2018-03-31T00:15:06.278Z,8.22
2018-03-31T00:15:46.694Z,8.21
2018-03-31T00:16:27.170Z,8.18
2018-03-31T00:17:07.522Z,8.36
2018-03-31T00:17:47.916Z,8.31
2018-03-31T00:18:28.351Z,8.32
2018-03-31T00:19:08.759Z,8.21
2018-03-31T00:19:49.275Z,8.27
2018-03-31T00:20:29.630Z,8.17
2018-03-31T00:21:10.029Z,8.2
2018-03-31T00:21:50.417Z,8.2
2018-03-31T00:22:30.853Z,8.13
2018-03-31T00:23:11.250Z,8.2
2018-03-31T00:23:51.706Z,8.17
2018-03-31T00:24:32.191Z,8.14
2018-03-31T00:25:12.487Z,8.09
2018-03-31T00:25:52.896Z,8.06
2018-03-31T00:26:33.331Z,8.12
2018-03-31T00:27:13.768Z,8.07
2018-03-31T00:27:54.124Z,8.06
2018-03-31T00:28:34.517Z,8.07
2018-03-31T00:29:14.983Z,8.13
2018-03-31T00:29:55.418Z,8.1
2018-03-31T00:30:35.814Z,8.03
2018-03-31T00:31:16.219Z,8.03
2018-03-31T00:31:56.664Z,8.06
2018-03-31T00:32:37.088Z,8.09
2018-03-31T00:33:17.558Z,8.03
2018-03-31T00:33:57.925Z,8.04
2018-03-31T00:34:38.310Z,8.02
2018-03-31T00:35:18.736Z,7.96
2018-03-31T00:35:59.177Z,7.89
2018-03-31T00:36:39.741Z,7.86
2018-03-31T00:37:20.022Z,7.86
2018-03-31T00:38:00.474Z,7.96
2018-03-31T00:38:40.845Z,7.95
2018-03-31T00:39:21.206Z,7.86
2018-03-31T00:40:01.671Z,7.79
2018-03-31T00:40:42.104Z,7.79
2018-03-31T00:41:22.481Z,7.88
2018-03-31T00:42:02.903Z,7.82
2018-03-31T00:42:43.333Z,7.85
2018-03-31T00:43:23.746Z,7.91
2018-03-31T00:44:04.179Z,7.95
2018-03-31T00:44:44.565Z,7.91
2018-03-31T00:45:24.936Z,7.94
2018-03-31T00:46:05.371Z,7.95
2018-03-31T00:46:45.801Z,7.91
2018-03-31T00:47:26.231Z,7.89
2018-03-31T00:48:06.608Z,8.04
2018-03-31T00:48:47.034Z,7.92
2018-03-31T00:49:27.482Z,7.95
2018-03-31T00:50:07.851Z,7.94
2018-03-31T00:50:48.326Z,8.03
2018-03-31T00:51:28.844Z,7.92
2018-03-31T00:52:09.250Z,7.94
2018-03-31T00:52:49.688Z,7.91
2018-03-31T00:53:30.055Z,7.91
2018-03-31T00:54:10.467Z,8
2018-03-31T00:54:50.974Z,8
2018-03-31T00:55:31.462Z,8.07
2018-03-31T00:56:11.757Z,8.06
2018-03-31T00:56:52.369Z,8.17
2018-03-31T00:57:32.816Z,8.14
2018-03-31T00:58:13.424Z,8.12
2018-03-31T00:58:53.878Z,8.06
2018-03-31T00:59:34.170Z,8
2018-03-31T01:00:14.830Z,8.04
2018-03-31T01:00:55.219Z,8.02
2018-03-31T01:01:35.640Z,8.02
2018-03-31T01:02:16.109Z,8
2018-03-31T01:02:56.568Z,7.96
2018-03-31T01:03:37.021Z,8.06
2018-03-31T01:04:17.342Z,8
2018-03-31T01:04:57.842Z,7.94
2018-03-31T01:05:38.302Z,7.95
2018-03-31T01:06:18.684Z,7.92
2018-03-31T01:06:59.225Z,8.03
2018-03-31T01:07:39.557Z,7.91
2018-03-31T01:08:20.026Z,7.92
2018-03-31T01:09:00.348Z,7.82
2018-03-31T01:09:40.772Z,7.82
2018-03-31T01:10:21.195Z,7.84
2018-03-31T01:11:01.637Z,7.79
2018-03-31T01:11:42.012Z,7.81
2018-03-31T01:12:22.500Z,7.81
2018-03-31T01:13:02.838Z,7.81
2018-03-31T01:13:43.237Z,7.81
2018-03-31T01:14:23.717Z,7.88
2018-03-31T01:15:04.101Z,7.84
2018-03-31T01:15:44.479Z,7.89
2018-03-31T01:16:24.815Z,7.85
2018-03-31T01:17:05.246Z,7.84
2018-03-31T01:17:45.633Z,7.82
2018-03-31T01:18:26.025Z,7.77
2018-03-31T01:19:06.449Z,7.74
2018-03-31T01:19:46.861Z,7.74
2018-03-31T01:20:27.175Z,7.71
2018-03-31T01:21:07.593Z,7.67
2018-03-31T01:21:47.988Z,7.76
2018-03-31T01:22:28.335Z,7.74
2018-03-31T01:23:08.811Z,7.69
2018-03-31T01:23:49.184Z,7.62
2018-03-31T01:24:29.621Z,7.66
2018-03-31T01:25:10.012Z,7.7
2018-03-31T01:25:50.478Z,7.57
2018-03-31T01:26:30.891Z,7.66
2018-03-31T01:27:11.217Z,7.6
2018-03-31T01:27:51.684Z,7.58
2018-03-31T01:28:32.076Z,7.51
2018-03-31T01:29:12.484Z,7.57
2018-03-31T01:29:52.955Z,7.48
2018-03-31T01:30:33.285Z,7.5
2018-03-31T01:31:13.771Z,7.5
2018-03-31T01:31:54.152Z,7.45
2018-03-31T01:32:34.589Z,7.5
2018-03-31T01:33:14.935Z,7.47
2018-03-31T01:33:55.328Z,7.62
2018-03-31T01:34:35.752Z,7.54
2018-03-31T01:35:16.122Z,7.55
2018-03-31T01:35:56.511Z,7.51
2018-03-31T01:36:36.936Z,7.54
2018-03-31T01:37:17.438Z,7.5
2018-03-31T01:37:57.808Z,7.5
2018-03-31T01:38:38.148Z,7.39
2018-03-31T01:39:18.587Z,7.45
2018-03-31T01:39:58.999Z,7.48
2018-03-31T01:40:39.437Z,7.39
2018-03-31T01:41:19.863Z,7.36
2018-03-31T01:42:00.249Z,7.36
2018-03-31T01:42:40.616Z,7.36
2018-03-31T01:43:21.065Z,7.39
2018-03-31T01:44:01.505Z,7.39
2018-03-31T01:44:41.972Z,7.23
2018-03-31T01:45:22.393Z,7.33
2018-03-31T01:46:02.856Z,7.3
2018-03-31T01:46:43.277Z,7.26
2018-03-31T01:47:23.770Z,7.34
2018-03-31T01:48:04.176Z,7.3
2018-03-31T01:48:44.584Z,7.37
2018-03-31T01:49:25.022Z,7.33
2018-03-31T01:50:05.438Z,7.5
2018-03-31T01:50:45.878Z,7.42
2018-03-31T01:51:26.366Z,7.48
2018-03-31T01:52:06.826Z,7.45
2018-03-31T01:52:47.229Z,7.51
2018-03-31T01:53:27.594Z,7.58
2018-03-31T01:54:08.061Z,7.55
2018-03-31T01:54:48.635Z,7.47
2018-03-31T01:55:29.061Z,7.57
2018-03-31T01:56:09.614Z,7.51
2018-03-31T01:56:50.035Z,7.47
2018-03-31T01:57:30.433Z,7.47
2018-03-31T01:58:10.774Z,7.45
2018-03-31T01:58:51.186Z,7.42
2018-03-31T01:59:31.606Z,7.47
2018-03-31T02:00:11.992Z,7.34
2018-03-31T02:00:52.367Z,7.34
2018-03-31T02:01:32.804Z,7.3
2018-03-31T02:02:13.240Z,7.34
2018-03-31T02:02:53.649Z,7.26
2018-03-31T02:03:34.075Z,7.33
2018-03-31T02:04:14.598Z,7.26
2018-03-31T02:04:54.931Z,7.27
2018-03-31T02:05:35.387Z,7.24
2018-03-31T02:06:15.795Z,7.27
2018-03-31T02:06:56.153Z,7.26
2018-03-31T02:07:36.588Z,7.21
2018-03-31T02:08:17.054Z,7.16
2018-03-31T02:08:57.462Z,7.24
2018-03-31T02:09:37.878Z,7.27
2018-03-31T02:10:18.336Z,7.19
2018-03-31T02:10:58.724Z,7.26
2018-03-31T02:11:39.089Z,7.34
2018-03-31T02:12:19.472Z,7.48
2018-03-31T02:12:59.923Z,7.58
2018-03-31T02:13:40.432Z,7.57
2018-03-31T02:14:21.247Z,7.66
2018-03-31T02:15:04.273Z,7.77
2018-03-31T02:15:45.826Z,7.85
2018-03-31T02:16:28.234Z,7.82
2018-03-31T02:17:12.343Z,7.95
2018-03-31T02:17:55.228Z,8.09
2018-03-31T02:18:38.146Z,8.17
2018-03-31T02:19:18.682Z,8.29
2018-03-31T02:19:59.279Z,8.31
2018-03-31T02:20:39.621Z,8.28
2018-03-31T02:21:20.115Z,8.37
2018-03-31T02:22:00.482Z,8.31
2018-03-31T02:22:40.954Z,8.32
2018-03-31T02:23:21.450Z,8.27
2018-03-31T02:24:01.848Z,8.12
2018-03-31T02:24:42.144Z,8.1
2018-03-31T02:25:22.576Z,8.07
2018-03-31T02:26:02.948Z,7.92
2018-03-31T02:26:43.297Z,7.84
2018-03-31T02:27:23.708Z,7.84
2018-03-31T02:28:04.086Z,7.71
2018-03-31T02:28:44.471Z,7.76
2018-03-31T02:29:24.922Z,7.63
2018-03-31T02:30:05.322Z,7.66
2018-03-31T02:30:45.697Z,7.58
2018-03-31T02:31:26.124Z,7.57
2018-03-31T02:32:06.549Z,7.57
2018-03-31T02:32:46.930Z,7.47
2018-03-31T02:33:27.445Z,7.41
2018-03-31T02:34:07.851Z,7.41
2018-03-31T02:34:48.192Z,7.34
2018-03-31T02:35:28.582Z,7.23
2018-03-31T02:36:08.977Z,7.24
2018-03-31T02:36:49.421Z,7.27
2018-03-31T02:37:29.789Z,7.24
2018-03-31T02:38:10.240Z,7.16
2018-03-31T02:38:50.622Z,7.21
2018-03-31T02:39:31.011Z,7.24
2018-03-31T02:40:11.377Z,7.16
2018-03-31T02:40:51.878Z,7.15
2018-03-31T02:41:32.213Z,7.14
2018-03-31T02:42:12.652Z,7.18
2018-03-31T02:42:53.086Z,7.21
2018-03-31T02:43:33.524Z,7.3
2018-03-31T02:44:14.043Z,7.34
2018-03-31T02:44:54.440Z,7.36
2018-03-31T02:45:34.937Z,7.5
2018-03-31T02:46:15.260Z,7.39
2018-03-31T02:46:55.689Z,7.34
2018-03-31T02:47:36.091Z,7.37
2018-03-31T02:48:16.475Z,7.37
2018-03-31T02:48:56.847Z,7.32
2018-03-31T02:49:38.214Z,7.24
2018-03-31T02:50:18.608Z,7.26
2018-03-31T02:50:59.087Z,7.26
2018-03-31T02:51:39.467Z,7.32
2018-03-31T02:52:19.805Z,7.36
2018-03-31T02:53:00.211Z,7.5
2018-03-31T02:53:40.606Z,7.51
2018-03-31T02:54:21.074Z,7.57
2018-03-31T02:55:01.418Z,7.48
2018-03-31T02:55:41.867Z,7.39
2018-03-31T02:56:23.997Z,7.34
2018-03-31T02:57:04.424Z,7.33
2018-03-31T02:57:44.777Z,7.32
2018-03-31T02:58:25.207Z,7.26
2018-03-31T02:59:05.604Z,7.27
2018-03-31T02:59:45.969Z,7.21
2018-03-31T03:00:26.343Z,7.18
2018-03-31T03:01:06.719Z,7.14
2018-03-31T03:01:47.242Z,7.15
2018-03-31T03:02:27.565Z,7.14
2018-03-31T03:03:08.011Z,7.15
2018-03-31T03:03:48.428Z,7.16
2018-03-31T03:04:28.794Z,7.16
2018-03-31T03:05:09.191Z,7.15
2018-03-31T03:05:49.614Z,7.11
2018-03-31T03:06:30.032Z,7.14
2018-03-31T03:07:10.535Z,7.19
2018-03-31T03:07:51.211Z,7.19
2018-03-31T03:08:31.595Z,7.18
2018-03-31T03:09:12.074Z,7.11
2018-03-31T03:09:52.374Z,7.11
2018-03-31T03:10:32.796Z,7.14
2018-03-31T03:11:13.236Z,7.08
2018-03-31T03:11:53.592Z,7.09
2018-03-31T03:12:34.025Z,7.05
2018-03-31T03:13:14.517Z,6.93
2018-03-31T03:13:54.797Z,6.91
2018-03-31T03:14:35.259Z,6.96
2018-03-31T03:15:15.614Z,6.86
2018-03-31T03:15:56.081Z,6.81
2018-03-31T03:16:36.485Z,6.83
2018-03-31T03:17:16.840Z,6.89
2018-03-31T03:17:57.399Z,6.86
2018-03-31T03:18:40.796Z,6.87
2018-03-31T03:19:21.246Z,6.83
2018-03-31T03:20:01.676Z,6.83
2018-03-31T03:20:42.133Z,6.9
2018-03-31T03:21:22.555Z,6.86
2018-03-31T03:22:03.502Z,6.83
2018-03-31T03:22:43.827Z,6.76
2018-03-31T03:23:26.454Z,6.68
2018-03-31T03:24:06.866Z,6.65
2018-03-31T03:24:47.229Z,6.63
2018-03-31T03:25:27.630Z,6.71
2018-03-31T03:26:08.019Z,6.68
2018-03-31T03:26:48.449Z,6.72
2018-03-31T03:27:29.238Z,6.63
2018-03-31T03:28:09.648Z,6.63
2018-03-31T03:28:50.240Z,6.63
2018-03-31T03:29:30.637Z,6.55
2018-03-31T03:30:11.085Z,6.69
2018-03-31T03:30:51.565Z,6.69
2018-03-31T03:31:31.873Z,6.68
2018-03-31T03:32:13.019Z,6.63
2018-03-31T03:32:59.597Z,6.54
2018-03-31T03:33:41.123Z,6.53
2018-03-31T03:34:21.998Z,6.65
2018-03-31T03:35:02.485Z,6.58
2018-03-31T03:35:42.833Z,6.6
2018-03-31T03:36:23.299Z,6.54
2018-03-31T03:37:03.704Z,6.65
2018-03-31T03:37:44.151Z,6.53
2018-03-31T03:38:24.592Z,6.53
2018-03-31T03:39:05.038Z,6.54
2018-03-31T03:39:45.499Z,6.54
2018-03-31T03:40:25.973Z,6.51
2018-03-31T03:41:06.398Z,6.43
2018-03-31T03:41:46.788Z,6.42
2018-03-31T03:42:27.347Z,6.45
2018-03-31T03:43:07.588Z,6.46
2018-03-31T03:43:48.078Z,6.45
2018-03-31T03:44:28.471Z,6.53
2018-03-31T03:45:08.996Z,6.53
2018-03-31T03:45:49.618Z,6.51
2018-03-31T03:46:30.560Z,6.5
2018-03-31T03:47:10.471Z,6.43
2018-03-31T03:47:50.886Z,6.42
2018-03-31T03:48:31.331Z,6.39
2018-03-31T03:49:11.766Z,6.39
2018-03-31T03:49:52.146Z,6.39
2018-03-31T03:50:32.564Z,6.42
2018-03-31T03:51:13.486Z,6.43
2018-03-31T03:51:53.373Z,6.39
2018-03-31T03:52:33.744Z,6.3
2018-03-31T03:53:14.138Z,6.3
2018-03-31T03:53:54.636Z,6.33
2018-03-31T03:54:34.936Z,6.2
2018-03-31T03:55:15.619Z,6.24
2018-03-31T03:55:55.992Z,6.2
2018-03-31T03:56:36.649Z,6.21
2018-03-31T03:57:16.943Z,6.13
2018-03-31T03:57:57.275Z,6.14
2018-03-31T03:58:37.728Z,6.21
2018-03-31T03:59:18.135Z,6.24
2018-03-31T03:59:58.569Z,6.2
2018-03-31T04:00:38.944Z,6.25
2018-03-31T04:01:19.365Z,6.17
2018-03-31T04:01:59.791Z,6.25
2018-03-31T04:02:40.302Z,6.25
2018-03-31T04:03:20.682Z,6.14
2018-03-31T04:04:01.078Z,6.16
2018-03-31T04:43:36.053Z,4.61
2018-03-31T04:44:25.025Z,4.44
2018-03-31T04:45:11.898Z,4.51
2018-03-31T04:45:59.799Z,4.34
2018-03-31T04:46:45.370Z,4.39
2018-03-31T04:50:41.130Z,4.54
2018-03-31T04:51:24.899Z,4.5
2018-03-31T04:52:05.249Z,4.53
2018-03-31T04:52:45.713Z,4.56
2018-03-31T04:53:26.383Z,4.62
2018-03-31T04:54:06.622Z,4.61
2018-03-31T04:54:47.228Z,4.62
2018-03-31T04:55:27.708Z,4.62
2018-03-31T04:56:08.421Z,4.56
2018-03-31T04:56:48.567Z,4.54
2018-03-31T04:57:28.946Z,4.62
2018-03-31T04:58:09.504Z,4.53
2018-03-31T04:58:49.961Z,4.75
2018-03-31T04:59:30.243Z,4.79
2018-03-31T05:00:10.584Z,4.74
2018-03-31T05:00:51.007Z,4.87
2018-03-31T05:01:31.439Z,4.86
2018-03-31T05:02:11.891Z,4.91
2018-03-31T05:02:52.276Z,4.88
2018-03-31T05:03:32.731Z,4.88
2018-03-31T05:04:13.189Z,4.9
2018-03-31T05:04:53.589Z,4.93
2018-03-31T05:05:34.012Z,5.06
2018-03-31T05:06:14.506Z,5.02
2018-03-31T05:06:54.877Z,5.04
2018-03-31T05:07:35.244Z,5.02
2018-03-31T05:08:15.679Z,5.06
2018-03-31T05:08:56.094Z,5.14
2018-03-31T05:09:36.457Z,5.14
2018-03-31T05:10:16.853Z,5.04
2018-03-31T05:10:57.231Z,5.05
2018-03-31T05:11:37.629Z,5.12
2018-03-31T05:12:18.007Z,5.14
2018-03-31T05:12:58.383Z,5.12
2018-03-31T05:13:38.839Z,5.12
2018-03-31T05:14:19.229Z,5.14
2018-03-31T05:14:59.630Z,5.17
2018-03-31T05:15:40.074Z,5.17
2018-03-31T05:16:20.415Z,5.17
2018-03-31T05:17:00.893Z,5.17
2018-03-31T05:17:41.292Z,5.2
2018-03-31T05:18:21.671Z,5.19
2018-03-31T05:19:02.048Z,5.27
2018-03-31T05:19:42.443Z,5.59
2018-03-31T05:20:22.901Z,5.62
2018-03-31T05:21:03.311Z,5.75
2018-03-31T05:21:44.132Z,5.96
2018-03-31T05:22:24.145Z,6.06
2018-03-31T05:23:04.572Z,6.17
2018-03-31T05:23:44.951Z,6.13
2018-03-31T05:24:25.329Z,6.05
2018-03-31T05:25:05.735Z,6.02
2018-03-31T05:25:46.227Z,5.93
2018-03-31T05:26:26.749Z,6.01
2018-03-31T05:27:07.110Z,5.99
2018-03-31T05:27:47.493Z,5.98
2018-03-31T05:28:27.940Z,6.01
2018-03-31T05:29:08.415Z,6.02
2018-03-31T05:29:48.753Z,5.9
2018-03-31T05:30:29.130Z,5.88
2018-03-31T05:31:09.542Z,5.95
2018-03-31T05:31:49.924Z,5.85
2018-03-31T05:32:30.350Z,5.92
2018-03-31T05:33:10.726Z,5.85
2018-03-31T05:33:51.139Z,5.93
2018-03-31T05:34:31.525Z,5.87
2018-03-31T05:35:11.940Z,5.93
2018-03-31T05:35:52.362Z,6.01
2018-03-31T05:36:32.787Z,6.01
2018-03-31T05:37:13.161Z,6.01
2018-03-31T05:37:53.554Z,6.03
2018-03-31T05:38:33.958Z,6.05
2018-03-31T05:39:14.387Z,6.14
2018-03-31T05:39:54.752Z,6.17
2018-03-31T05:40:35.202Z,6.2
2018-03-31T05:41:17.191Z,6.11
2018-03-31T05:41:57.570Z,6.16
2018-03-31T05:42:37.934Z,6.17
2018-03-31T05:43:18.339Z,6.17
2018-03-31T05:43:58.731Z,6.19
2018-03-31T05:44:39.225Z,6.14
2018-03-31T05:45:19.586Z,6.27
2018-03-31T05:46:00.050Z,6.39
2018-03-31T05:46:40.442Z,6.5
2018-03-31T05:47:20.877Z,6.55
2018-03-31T05:48:01.322Z,6.68
2018-03-31T05:48:41.721Z,6.79
2018-03-31T05:49:22.121Z,6.86
2018-03-31T05:50:02.547Z,6.83
2018-03-31T05:50:42.955Z,6.94
2018-03-31T05:51:23.334Z,6.97
2018-03-31T05:52:03.772Z,7.07
2018-03-31T05:52:44.191Z,7.15
2018-03-31T05:53:24.504Z,7.18
2018-03-31T05:54:05.015Z,7.18
2018-03-31T05:54:45.356Z,7.15
2018-03-31T05:55:25.758Z,7.34
2018-03-31T05:56:06.183Z,7.33
2018-03-31T05:56:46.536Z,7.45
2018-03-31T05:57:26.915Z,7.55
2018-03-31T05:58:07.299Z,7.48
2018-03-31T05:58:47.684Z,7.37
2018-03-31T05:59:28.147Z,7.5
2018-03-31T06:00:08.474Z,7.36
2018-03-31T06:00:48.878Z,7.42
2018-03-31T06:01:29.975Z,7.36
2018-03-31T06:02:10.053Z,7.45
2018-03-31T06:02:50.458Z,7.58
2018-03-31T06:03:30.914Z,7.55
2018-03-31T06:04:11.348Z,7.45
2018-03-31T06:04:51.780Z,7.55
2018-03-31T06:05:32.208Z,7.54
2018-03-31T06:06:13.022Z,7.57
2018-03-31T06:06:53.431Z,7.51
2018-03-31T06:07:33.806Z,7.55
2018-03-31T06:08:14.190Z,7.45
2018-03-31T06:08:54.682Z,7.54
2018-03-31T06:09:35.041Z,7.55
2018-03-31T06:10:15.369Z,7.58
2018-03-31T06:10:55.798Z,7.58
2018-03-31T06:11:36.248Z,7.66
2018-03-31T06:12:16.658Z,7.69
2018-03-31T06:12:57.131Z,7.7
2018-03-31T06:13:37.511Z,7.69
2018-03-31T06:14:17.929Z,7.74
2018-03-31T06:14:58.405Z,7.84
2018-03-31T06:15:38.732Z,7.96
2018-03-31T06:16:19.187Z,7.92
2018-03-31T06:16:59.575Z,8.02
2018-03-31T06:17:40.015Z,7.99
2018-03-31T06:18:20.369Z,8.06
2018-03-31T06:19:00.777Z,8.12
2018-03-31T06:19:41.134Z,8.24
2018-03-31T06:20:21.655Z,8.31
2018-03-31T06:21:02.287Z,8.31
2018-03-31T06:21:42.628Z,8.28
2018-03-31T06:22:23.167Z,8.32
2018-03-31T06:23:03.519Z,8.36
2018-03-31T06:23:43.945Z,8.46
2018-03-31T06:24:24.385Z,8.43
2018-03-31T06:25:04.834Z,8.5
2018-03-31T06:25:45.245Z,8.5
2018-03-31T06:26:25.664Z,8.47
2018-03-31T06:27:06.117Z,8.55
2018-03-31T06:27:46.512Z,8.52
2018-03-31T06:28:26.901Z,8.46
2018-03-31T06:29:07.322Z,8.57
2018-03-31T06:29:47.637Z,8.63
2018-03-31T06:30:28.116Z,8.7
2018-03-31T06:31:08.467Z,8.64
2018-03-31T06:31:48.941Z,8.75
2018-03-31T06:32:29.547Z,8.82
2018-03-31T06:33:09.812Z,8.83
2018-03-31T06:33:50.544Z,8.82
2018-03-31T06:34:31.116Z,8.98
2018-03-31T06:35:12.207Z,8.94
2018-03-31T06:35:52.669Z,8.96
2018-03-31T06:36:34.636Z,8.91
2018-03-31T06:37:14.380Z,8.96
2018-03-31T06:37:54.829Z,8.89
2018-03-31T06:38:35.238Z,8.97
2018-03-31T06:39:15.651Z,8.88
2018-03-31T06:39:56.654Z,8.91
2018-03-31T06:40:38.770Z,8.89
2018-03-31T06:41:19.435Z,8.85
2018-03-31T06:41:59.870Z,8.89
2018-03-31T06:42:40.292Z,8.91
2018-03-31T06:43:20.714Z,8.91
2018-03-31T06:44:01.075Z,8.98
2018-03-31T06:44:41.506Z,8.98
2018-03-31T06:45:21.857Z,9.08
2018-03-31T06:46:02.350Z,9.08
2018-03-31T06:46:43.284Z,9.08
2018-03-31T06:47:23.899Z,9.06
2018-03-31T06:48:04.687Z,9.1
2018-03-31T06:48:45.124Z,9.06
2018-03-31T06:49:26.060Z,9.08
2018-03-31T06:50:06.371Z,9.12
2018-03-31T06:50:47.155Z,9.1
2018-03-31T06:51:27.589Z,9.22
2018-03-31T06:52:07.973Z,9.27
2018-03-31T06:52:48.423Z,9.24
2018-03-31T06:53:28.781Z,9.38
2018-03-31T06:54:09.167Z,9.41
2018-03-31T06:54:49.664Z,9.41
2018-03-31T06:55:30.138Z,9.59
2018-03-31T06:56:10.425Z,9.59
2018-03-31T06:56:51.580Z,9.58
2018-03-31T06:57:32.322Z,9.58
2018-03-31T06:58:13.427Z,9.53
2018-03-31T06:58:53.199Z,9.53
2018-03-31T06:59:33.949Z,9.44
2018-03-31T07:00:14.702Z,9.37
2018-03-31T07:00:55.096Z,9.45
2018-03-31T07:01:35.510Z,9.42
2018-03-31T07:02:15.864Z,9.52
2018-03-31T07:02:57.343Z,9.62
2018-03-31T07:03:37.764Z,9.67
2018-03-31T07:04:18.212Z,9.81
2018-03-31T07:04:58.600Z,9.74
2018-03-31T07:05:38.992Z,9.91
2018-03-31T07:06:19.469Z,9.91
2018-03-31T07:06:59.861Z,9.93
2018-03-31T07:07:40.276Z,10.04
2018-03-31T07:08:20.741Z,10.14
2018-03-31T07:09:01.165Z,10.28
2018-03-31T07:09:41.667Z,10.35
2018-03-31T07:10:21.935Z,10.43
2018-03-31T07:11:02.322Z,10.44
2018-03-31T07:11:43.611Z,10.51
2018-03-31T07:12:23.727Z,10.63
2018-03-31T07:13:04.281Z,10.65
2018-03-31T07:13:46.255Z,10.72
2018-03-31T07:14:28.454Z,10.75
2018-03-31T07:15:08.925Z,10.7
2018-03-31T07:15:50.583Z,10.87
2018-03-31T07:16:31.166Z,10.8
2018-03-31T07:17:12.844Z,10.68
2018-03-31T07:17:53.675Z,10.6
2018-03-31T07:18:34.060Z,10.58
2018-03-31T07:19:14.527Z,10.47
2018-03-31T07:19:54.931Z,10.44
2018-03-31T07:20:35.344Z,10.28
2018-03-31T07:21:15.696Z,10.36
2018-03-31T07:21:56.116Z,10.34
2018-03-31T07:22:36.531Z,10.32
2018-03-31T07:23:16.969Z,10.47
2018-03-31T07:23:57.380Z,10.42
2018-03-31T07:24:37.980Z,10.35
2018-03-31T07:25:19.748Z,10.39
2018-03-31T07:25:59.541Z,10.28
2018-03-31T07:26:40.534Z,10.2
2018-03-31T07:27:21.017Z,10.18
2018-03-31T07:28:02.062Z,10.04
2018-03-31T07:28:42.285Z,9.98
2018-03-31T07:29:22.707Z,10.04
2018-03-31T07:30:03.379Z,10.02
2018-03-31T07:30:43.821Z,10.01
2018-03-31T07:31:24.331Z,10.09
2018-03-31T07:32:05.558Z,10.14
2018-03-31T07:32:45.886Z,10.02
2018-03-31T07:33:26.525Z,10.2
2018-03-31T07:34:06.935Z,10.2
2018-03-31T07:34:47.465Z,10.2
2018-03-31T07:35:28.424Z,10.16
2018-03-31T07:36:09.635Z,10.11
2018-03-31T07:36:49.926Z,10.01
2018-03-31T07:37:30.426Z,9.98
2018-03-31T07:38:10.895Z,9.78
2018-03-31T07:45:50.164Z,10.62
2018-03-31T07:46:35.618Z,10.46
2018-03-31T07:47:24.183Z,10.35
2018-03-31T07:48:04.475Z,10.46
2018-03-31T07:48:47.061Z,10.52
2018-03-31T07:49:27.678Z,10.72
2018-03-31T07:50:09.242Z,10.9
2018-03-31T07:50:49.988Z,10.87
2018-03-31T07:51:31.894Z,10.9
2018-03-31T07:53:26.906Z,10.95
2018-03-31T07:56:34.359Z,11.01
2018-03-31T07:57:24.442Z,10.94
2018-03-31T07:58:15.630Z,10.91
2018-03-31T07:59:05.633Z,10.98
2018-03-31T08:00:01.145Z,11.12
2018-03-31T08:00:42.111Z,11.16
2018-03-31T08:14:32.539Z,11.97
2018-03-31T08:15:19.760Z,11.74
2018-03-31T08:16:07.671Z,11.66
2018-03-31T08:16:57.322Z,11.66
2018-03-31T08:20:07.333Z,11.66
2018-03-31T08:20:57.302Z,11.6
2018-03-31T08:21:48.126Z,11.75
2018-03-31T08:22:29.913Z,11.94
2018-03-31T08:23:10.341Z,12.05
2018-03-31T08:23:51.650Z,12.03
2018-03-31T08:24:32.433Z,12.15
2018-03-31T08:25:12.544Z,12.08
2018-03-31T08:25:52.897Z,12.12
2018-03-31T08:26:33.652Z,12.03
2018-03-31T08:27:13.978Z,11.88
2018-03-31T08:27:54.335Z,11.82
2018-03-31T08:28:34.752Z,11.84
2018-03-31T08:29:17.409Z,11.97
2018-03-31T08:30:01.951Z,12.11
2018-03-31T08:40:19.525Z,13.14
2018-03-31T08:43:45.771Z,13.68
2018-03-31T08:49:59.192Z,14.67
2018-03-31T08:51:04.214Z,14.61
2018-03-31T08:52:38.276Z,14.66
2018-03-31T08:53:23.097Z,14.53
2018-03-31T08:54:13.703Z,14.44
2018-03-31T08:54:58.165Z,14.39
2018-03-31T08:55:41.557Z,14.44
2018-03-31T08:56:22.017Z,14.48
2018-03-31T08:57:02.576Z,14.78
2018-03-31T08:57:43.394Z,14.74
2018-03-31T08:58:24.285Z,15
2018-03-31T08:59:05.027Z,15.12
2018-03-31T08:59:45.316Z,15.35
2018-03-31T09:00:25.763Z,15.3
2018-03-31T09:01:06.194Z,15.41
2018-03-31T09:01:46.632Z,15.44
2018-03-31T09:02:26.992Z,15.38
2018-03-31T09:03:07.414Z,15.44
2018-03-31T09:03:47.907Z,15.6
2018-03-31T09:04:28.339Z,15.59
2018-03-31T09:05:09.109Z,15.58
2018-03-31T09:07:31.858Z,15.67
2018-03-31T09:08:22.156Z,15.68
2018-03-31T09:09:19.775Z,15.62
2018-03-31T09:10:55.182Z,15.67
2018-03-31T09:11:54.458Z,15.77
2018-03-31T09:13:41.931Z,16.37
2018-03-31T09:15:15.313Z,16.36
2018-03-31T09:16:07.587Z,16.4
2018-03-31T09:18:34.509Z,16.95
2018-03-31T09:20:26.422Z,17.25
2018-03-31T09:22:56.957Z,16.99
2018-03-31T09:23:42.810Z,16.91
2018-03-31T09:24:33.134Z,17.03
2018-03-31T09:25:17.353Z,17.09
2018-03-31T09:25:58.827Z,17.03
2018-03-31T09:26:41.599Z,16.91
2018-03-31T09:39:05.625Z,17.74
2018-03-31T09:39:46.198Z,17.86
2018-03-31T09:40:26.505Z,18.11
2018-03-31T09:41:06.871Z,18.26
2018-03-31T09:41:47.287Z,18.34
2018-03-31T09:42:27.693Z,18.44
2018-03-31T09:43:08.054Z,18.51
2018-03-31T09:44:03.062Z,18.74
2018-03-31T09:44:43.446Z,18.91
2018-03-31T09:45:23.896Z,19.09
2018-03-31T09:46:04.246Z,19.23
2018-03-31T09:46:44.717Z,19.4
2018-03-31T09:47:25.108Z,19.42
2018-03-31T09:48:05.449Z,19.55
2018-03-31T09:48:45.897Z,19.46
2018-03-31T09:49:26.307Z,19.45
2018-03-31T09:50:06.660Z,19.28
2018-03-31T09:50:47.047Z,19.27
2018-03-31T09:51:27.476Z,19.5
2018-03-31T09:52:07.877Z,19.62
2018-03-31T09:52:48.314Z,19.71
2018-03-31T09:53:28.701Z,19.76
2018-03-31T09:54:09.182Z,19.67
2018-03-31T09:54:49.749Z,19.45
2018-03-31T09:55:30.110Z,19.09
2018-03-31T09:56:10.553Z,18.75
2018-03-31T09:56:50.963Z,18.72
2018-03-31T09:57:31.427Z,18.71
2018-03-31T09:58:11.876Z,18.57
2018-03-31T09:58:52.481Z,18.64
2018-03-31T09:59:32.882Z,18.38
2018-03-31T10:00:13.557Z,18.46
2018-03-31T10:00:53.998Z,18.39
2018-03-31T10:01:34.429Z,18.53
2018-03-31T10:02:14.895Z,18.6
2018-03-31T10:02:55.353Z,18.89
2018-03-31T10:03:35.813Z,18.97
2018-03-31T10:04:16.260Z,19.01
2018-03-31T10:04:56.650Z,18.79
2018-03-31T10:05:37.044Z,18.91
2018-03-31T10:45:46.333Z,21.16
2018-03-31T10:46:36.056Z,21.11
2018-03-31T10:47:20.044Z,20.87
2018-03-31T10:48:00.414Z,20.78
2018-03-31T10:48:41.947Z,20.68
2018-03-31T10:49:22.442Z,20.61
2018-03-31T10:50:02.685Z,20.46
2018-03-31T10:50:43.311Z,20.41
2018-03-31T10:51:24.818Z,20.26
2018-03-31T10:52:08.242Z,20.27
2018-03-31T10:52:49.216Z,20.37
2018-03-31T10:53:29.606Z,20.46
2018-03-31T10:54:10.387Z,20.5
2018-03-31T10:54:51.793Z,20.53
2018-03-31T10:55:32.613Z,20.5
2018-03-31T10:56:13.014Z,20.46
2018-03-31T10:56:53.561Z,20.51
2018-03-31T10:57:34.135Z,20.57
2018-03-31T10:58:15.328Z,20.64
2018-03-31T10:58:55.786Z,20.68
2018-03-31T10:59:36.118Z,20.66
2018-03-31T11:00:17.261Z,20.69
2018-03-31T11:00:57.722Z,20.78
2018-03-31T11:01:38.129Z,20.78
2018-03-31T11:02:19.810Z,20.9
2018-03-31T11:02:59.969Z,20.98
2018-03-31T11:03:40.416Z,20.91
2018-03-31T11:04:20.861Z,20.85
2018-03-31T11:05:01.248Z,21.08
2018-03-31T11:05:41.658Z,21.08
2018-03-31T11:06:22.124Z,21.05
2018-03-31T11:07:02.550Z,21.03
2018-03-31T11:07:42.952Z,21.15
2018-03-31T11:08:24.102Z,21.22
2018-03-31T11:09:04.516Z,21.15
2018-03-31T11:09:45.151Z,21.15
2018-03-31T11:10:26.422Z,21.11
2018-03-31T11:11:06.154Z,21.22
2018-03-31T11:11:47.406Z,21.27
2018-03-31T11:12:27.258Z,21.22
2018-03-31T11:13:07.931Z,21.24
2018-03-31T11:13:48.411Z,21.22
2018-03-31T11:14:29.939Z,21.24
2018-03-31T11:15:11.449Z,21.36
2018-03-31T11:15:53.231Z,21.26
2018-03-31T11:16:32.920Z,21.12
2018-03-31T11:17:16.208Z,20.76
2018-03-31T11:17:58.026Z,20.64
2018-03-31T11:18:38.547Z,20.82
2018-03-31T11:20:28.420Z,21.21
2018-03-31T11:21:10.317Z,21.37
2018-03-31T11:21:50.692Z,21.34
2018-03-31T11:22:31.826Z,21.36
2018-03-31T11:23:12.024Z,21.31
2018-03-31T11:23:52.452Z,21.4
2018-03-31T11:24:32.834Z,21.51
2018-03-31T11:25:13.833Z,21.49
2018-03-31T11:25:54.685Z,21.63
2018-03-31T11:26:35.708Z,21.66
2018-03-31T11:27:16.126Z,21.71
2018-03-31T11:27:56.559Z,21.71
2018-03-31T11:28:36.939Z,21.89
2018-03-31T11:29:17.346Z,22.17
2018-03-31T11:29:57.772Z,22.26